sensor_id;sensor_type;location;lat;lon;timestamp;P1;durP1;ratioP1;P2;durP2;ratioP2
6288;SDS011;3177;49.880;8.836;2023-08-06T00:00:55;3.47;;;3.17;;
6288;SDS011;3177;49.880;8.836;2023-08-06T00:03:22;5.07;;;3.00;;
6288;SDS011;3177;49.880;8.836;2023-08-06T00:05:49;3.77;;;2.83;;
6288;SDS011;3177;49.880;8.836;2023-08-06T00:08:17;3.43;;;3.13;;
6288;SDS011;3177;49.880;8.836;2023-08-06T00:10:47;3.90;;;2.70;;
6288;SDS011;3177;49.880;8.836;2023-08-06T00:13:14;3.03;;;2.73;;
6288;SDS011;3177;49.880;8.836;2023-08-06T00:15:45;3.30;;;3.00;;
6288;SDS011;3177;49.880;8.836;2023-08-06T00:18:12;3.10;;;2.90;;
6288;SDS011;3177;49.880;8.836;2023-08-06T00:20:39;3.30;;;2.97;;
6288;SDS011;3177;49.880;8.836;2023-08-06T00:23:06;3.40;;;3.10;;
6288;SDS011;3177;49.880;8.836;2023-08-06T00:25:36;4.10;;;2.90;;
6288;SDS011;3177;49.880;8.836;2023-08-06T00:28:05;3.00;;;2.57;;
6288;SDS011;3177;49.880;8.836;2023-08-06T00:30:33;3.23;;;2.73;;
6288;SDS011;3177;49.880;8.836;2023-08-06T00:33:00;5.20;;;2.50;;
6288;SDS011;3177;49.880;8.836;2023-08-06T00:35:27;2.93;;;2.70;;
6288;SDS011;3177;49.880;8.836;2023-08-06T00:37:54;3.03;;;2.80;;
6288;SDS011;3177;49.880;8.836;2023-08-06T00:40:21;4.17;;;2.70;;
6288;SDS011;3177;49.880;8.836;2023-08-06T00:42:48;3.83;;;2.93;;
6288;SDS011;3177;49.880;8.836;2023-08-06T00:45:17;2.70;;;2.50;;
6288;SDS011;3177;49.880;8.836;2023-08-06T00:47:44;3.70;;;2.83;;
6288;SDS011;3177;49.880;8.836;2023-08-06T00:50:12;3.13;;;2.93;;
6288;SDS011;3177;49.880;8.836;2023-08-06T00:52:44;2.97;;;2.43;;
6288;SDS011;3177;49.880;8.836;2023-08-06T00:55:14;3.47;;;2.70;;
6288;SDS011;3177;49.880;8.836;2023-08-06T00:57:42;3.23;;;2.43;;
6288;SDS011;3177;49.880;8.836;2023-08-06T01:00:11;2.53;;;2.33;;
6288;SDS011;3177;49.880;8.836;2023-08-06T01:02:40;3.33;;;2.43;;
6288;SDS011;3177;49.880;8.836;2023-08-06T01:05:10;7.20;;;2.70;;
6288;SDS011;3177;49.880;8.836;2023-08-06T01:07:48;3.03;;;2.73;;
6288;SDS011;3177;49.880;8.836;2023-08-06T01:10:23;2.70;;;2.50;;
6288;SDS011;3177;49.880;8.836;2023-08-06T01:13:06;4.73;;;2.77;;
6288;SDS011;3177;49.880;8.836;2023-08-06T01:15:38;3.30;;;2.43;;
6288;SDS011;3177;49.880;8.836;2023-08-06T01:18:23;2.97;;;2.57;;
6288;SDS011;3177;49.880;8.836;2023-08-06T01:20:53;2.80;;;2.60;;
6288;SDS011;3177;49.880;8.836;2023-08-06T01:24:03;2.50;;;2.30;;
6288;SDS011;3177;49.880;8.836;2023-08-06T01:26:35;3.30;;;2.47;;
6288;SDS011;3177;49.880;8.836;2023-08-06T01:29:17;2.50;;;2.30;;
6288;SDS011;3177;49.880;8.836;2023-08-06T01:31:47;2.50;;;2.30;;
6288;SDS011;3177;49.880;8.836;2023-08-06T01:34:17;2.60;;;2.40;;
6288;SDS011;3177;49.880;8.836;2023-08-06T01:36:46;3.50;;;2.50;;
6288;SDS011;3177;49.880;8.836;2023-08-06T01:39:13;2.47;;;2.17;;
6288;SDS011;3177;49.880;8.836;2023-08-06T01:41:41;2.60;;;2.40;;
6288;SDS011;3177;49.880;8.836;2023-08-06T01:44:11;2.37;;;2.17;;
6288;SDS011;3177;49.880;8.836;2023-08-06T01:46:43;2.57;;;2.30;;
6288;SDS011;3177;49.880;8.836;2023-08-06T01:49:10;2.63;;;2.43;;
6288;SDS011;3177;49.880;8.836;2023-08-06T01:51:40;2.93;;;2.40;;
6288;SDS011;3177;49.880;8.836;2023-08-06T01:54:08;2.30;;;2.10;;
6288;SDS011;3177;49.880;8.836;2023-08-06T01:56:36;3.27;;;2.47;;
6288;SDS011;3177;49.880;8.836;2023-08-06T01:59:05;3.27;;;2.30;;
6288;SDS011;3177;49.880;8.836;2023-08-06T02:01:35;2.60;;;2.40;;
6288;SDS011;3177;49.880;8.836;2023-08-06T02:04:06;2.63;;;2.43;;
6288;SDS011;3177;49.880;8.836;2023-08-06T02:06:33;4.97;;;2.40;;
6288;SDS011;3177;49.880;8.836;2023-08-06T02:09:03;2.47;;;2.27;;
6288;SDS011;3177;49.880;8.836;2023-08-06T02:11:33;2.93;;;2.33;;
6288;SDS011;3177;49.880;8.836;2023-08-06T02:14:06;2.30;;;2.10;;
6288;SDS011;3177;49.880;8.836;2023-08-06T02:16:33;3.10;;;2.77;;
6288;SDS011;3177;49.880;8.836;2023-08-06T02:19:00;3.30;;;2.60;;
6288;SDS011;3177;49.880;8.836;2023-08-06T02:21:27;3.23;;;2.40;;
6288;SDS011;3177;49.880;8.836;2023-08-06T02:24:02;2.23;;;2.03;;
6288;SDS011;3177;49.880;8.836;2023-08-06T02:26:30;3.33;;;2.27;;
6288;SDS011;3177;49.880;8.836;2023-08-06T02:28:58;3.30;;;2.30;;
6288;SDS011;3177;49.880;8.836;2023-08-06T02:31:25;3.57;;;2.63;;
6288;SDS011;3177;49.880;8.836;2023-08-06T02:33:53;2.10;;;2.00;;
6288;SDS011;3177;49.880;8.836;2023-08-06T02:36:20;2.50;;;2.30;;
6288;SDS011;3177;49.880;8.836;2023-08-06T02:38:47;2.97;;;2.50;;
6288;SDS011;3177;49.880;8.836;2023-08-06T02:41:16;3.57;;;2.30;;
6288;SDS011;3177;49.880;8.836;2023-08-06T02:43:43;4.00;;;2.43;;
6288;SDS011;3177;49.880;8.836;2023-08-06T02:46:11;2.70;;;2.30;;
6288;SDS011;3177;49.880;8.836;2023-08-06T02:48:46;3.70;;;2.37;;
6288;SDS011;3177;49.880;8.836;2023-08-06T02:51:13;2.37;;;2.17;;
6288;SDS011;3177;49.880;8.836;2023-08-06T02:53:40;2.70;;;2.50;;
6288;SDS011;3177;49.880;8.836;2023-08-06T02:56:07;3.30;;;2.40;;
6288;SDS011;3177;49.880;8.836;2023-08-06T02:58:36;2.57;;;2.37;;
6288;SDS011;3177;49.880;8.836;2023-08-06T03:01:05;2.30;;;2.10;;
6288;SDS011;3177;49.880;8.836;2023-08-06T03:03:37;2.30;;;2.10;;
6288;SDS011;3177;49.880;8.836;2023-08-06T03:06:04;2.53;;;2.30;;
6288;SDS011;3177;49.880;8.836;2023-08-06T03:08:34;2.60;;;2.40;;
6288;SDS011;3177;49.880;8.836;2023-08-06T03:11:04;4.03;;;2.47;;
6288;SDS011;3177;49.880;8.836;2023-08-06T03:13:36;3.73;;;2.40;;
6288;SDS011;3177;49.880;8.836;2023-08-06T03:16:03;3.33;;;2.63;;
6288;SDS011;3177;49.880;8.836;2023-08-06T03:18:30;3.00;;;2.40;;
6288;SDS011;3177;49.880;8.836;2023-08-06T03:20:59;3.93;;;2.37;;
6288;SDS011;3177;49.880;8.836;2023-08-06T03:23:26;2.53;;;2.20;;
6288;SDS011;3177;49.880;8.836;2023-08-06T03:25:53;2.07;;;1.97;;
6288;SDS011;3177;49.880;8.836;2023-08-06T03:28:20;4.83;;;3.27;;
6288;SDS011;3177;49.880;8.836;2023-08-06T03:30:49;5.87;;;2.50;;
6288;SDS011;3177;49.880;8.836;2023-08-06T03:33:25;2.93;;;2.60;;
6288;SDS011;3177;49.880;8.836;2023-08-06T03:35:52;3.63;;;2.33;;
6288;SDS011;3177;49.880;8.836;2023-08-06T03:38:20;2.30;;;2.00;;
6288;SDS011;3177;49.880;8.836;2023-08-06T03:40:47;3.90;;;2.23;;
6288;SDS011;3177;49.880;8.836;2023-08-06T03:43:13;2.53;;;2.33;;
6288;SDS011;3177;49.880;8.836;2023-08-06T03:45:41;2.40;;;2.20;;
6288;SDS011;3177;49.880;8.836;2023-08-06T03:48:08;4.30;;;2.03;;
6288;SDS011;3177;49.880;8.836;2023-08-06T03:50:35;2.20;;;2.00;;
6288;SDS011;3177;49.880;8.836;2023-08-06T03:53:03;3.00;;;2.33;;
6288;SDS011;3177;49.880;8.836;2023-08-06T03:55:31;2.93;;;1.93;;
6288;SDS011;3177;49.880;8.836;2023-08-06T03:57:58;2.47;;;1.93;;
6288;SDS011;3177;49.880;8.836;2023-08-06T04:00:25;1.87;;;1.70;;
6288;SDS011;3177;49.880;8.836;2023-08-06T04:02:52;3.03;;;2.23;;
6288;SDS011;3177;49.880;8.836;2023-08-06T04:05:20;2.60;;;1.90;;
6288;SDS011;3177;49.880;8.836;2023-08-06T04:07:49;3.23;;;1.97;;
6288;SDS011;3177;49.880;8.836;2023-08-06T04:10:29;3.13;;;1.90;;
6288;SDS011;3177;49.880;8.836;2023-08-06T04:12:57;3.27;;;2.23;;
6288;SDS011;3177;49.880;8.836;2023-08-06T04:15:24;2.20;;;2.00;;
6288;SDS011;3177;49.880;8.836;2023-08-06T04:17:51;2.67;;;2.00;;
6288;SDS011;3177;49.880;8.836;2023-08-06T04:20:18;2.63;;;1.87;;
6288;SDS011;3177;49.880;8.836;2023-08-06T04:22:46;2.33;;;2.13;;
6288;SDS011;3177;49.880;8.836;2023-08-06T04:25:13;2.10;;;1.90;;
6288;SDS011;3177;49.880;8.836;2023-08-06T04:27:44;2.70;;;2.10;;
6288;SDS011;3177;49.880;8.836;2023-08-06T04:30:12;4.13;;;2.13;;
6288;SDS011;3177;49.880;8.836;2023-08-06T04:32:45;2.10;;;1.90;;
6288;SDS011;3177;49.880;8.836;2023-08-06T04:35:15;2.30;;;2.03;;
6288;SDS011;3177;49.880;8.836;2023-08-06T04:37:45;2.60;;;1.90;;
6288;SDS011;3177;49.880;8.836;2023-08-06T04:40:12;4.20;;;2.20;;
6288;SDS011;3177;49.880;8.836;2023-08-06T04:42:39;3.37;;;2.30;;
6288;SDS011;3177;49.880;8.836;2023-08-06T04:45:07;2.00;;;1.87;;
6288;SDS011;3177;49.880;8.836;2023-08-06T04:47:44;2.03;;;1.93;;
6288;SDS011;3177;49.880;8.836;2023-08-06T04:50:15;2.40;;;1.93;;
6288;SDS011;3177;49.880;8.836;2023-08-06T04:52:42;3.43;;;2.10;;
6288;SDS011;3177;49.880;8.836;2023-08-06T04:55:09;4.47;;;1.67;;
6288;SDS011;3177;49.880;8.836;2023-08-06T04:57:36;2.03;;;1.80;;
6288;SDS011;3177;49.880;8.836;2023-08-06T05:00:06;2.37;;;1.70;;
6288;SDS011;3177;49.880;8.836;2023-08-06T05:02:33;4.60;;;2.37;;
6288;SDS011;3177;49.880;8.836;2023-08-06T05:05:04;1.77;;;1.67;;
6288;SDS011;3177;49.880;8.836;2023-08-06T05:07:37;2.00;;;1.80;;
6288;SDS011;3177;49.880;8.836;2023-08-06T05:10:04;1.70;;;1.60;;
6288;SDS011;3177;49.880;8.836;2023-08-06T05:12:31;2.93;;;1.77;;
6288;SDS011;3177;49.880;8.836;2023-08-06T05:15:04;2.10;;;1.50;;
6288;SDS011;3177;49.880;8.836;2023-08-06T05:17:31;1.70;;;1.60;;
6288;SDS011;3177;49.880;8.836;2023-08-06T05:19:59;1.60;;;1.50;;
6288;SDS011;3177;49.880;8.836;2023-08-06T05:22:27;1.63;;;1.40;;
6288;SDS011;3177;49.880;8.836;2023-08-06T05:24:57;1.83;;;1.57;;
6288;SDS011;3177;49.880;8.836;2023-08-06T05:27:40;2.83;;;1.73;;
6288;SDS011;3177;49.880;8.836;2023-08-06T05:30:08;3.40;;;1.70;;
6288;SDS011;3177;49.880;8.836;2023-08-06T05:32:41;2.07;;;1.47;;
6288;SDS011;3177;49.880;8.836;2023-08-06T05:35:18;1.27;;;1.20;;
6288;SDS011;3177;49.880;8.836;2023-08-06T05:37:46;1.50;;;1.40;;
6288;SDS011;3177;49.880;8.836;2023-08-06T05:40:19;2.47;;;1.40;;
6288;SDS011;3177;49.880;8.836;2023-08-06T05:42:50;4.10;;;1.53;;
6288;SDS011;3177;49.880;8.836;2023-08-06T05:45:17;1.50;;;1.40;;
6288;SDS011;3177;49.880;8.836;2023-08-06T05:47:45;2.60;;;1.60;;
6288;SDS011;3177;49.880;8.836;2023-08-06T05:50:12;1.57;;;1.40;;
6288;SDS011;3177;49.880;8.836;2023-08-06T05:52:42;1.50;;;1.40;;
6288;SDS011;3177;49.880;8.836;2023-08-06T05:55:18;1.70;;;1.57;;
6288;SDS011;3177;49.880;8.836;2023-08-06T05:57:47;1.80;;;1.67;;
6288;SDS011;3177;49.880;8.836;2023-08-06T06:00:14;1.80;;;1.40;;
6288;SDS011;3177;49.880;8.836;2023-08-06T06:02:42;1.50;;;1.40;;
6288;SDS011;3177;49.880;8.836;2023-08-06T06:05:14;1.40;;;1.30;;
6288;SDS011;3177;49.880;8.836;2023-08-06T06:07:41;1.13;;;1.13;;
6288;SDS011;3177;49.880;8.836;2023-08-06T06:10:09;1.00;;;1.00;;
6288;SDS011;3177;49.880;8.836;2023-08-06T06:12:40;1.40;;;1.30;;
6288;SDS011;3177;49.880;8.836;2023-08-06T06:15:18;2.07;;;1.20;;
6288;SDS011;3177;49.880;8.836;2023-08-06T06:17:51;1.93;;;1.27;;
6288;SDS011;3177;49.880;8.836;2023-08-06T06:20:22;1.47;;;1.37;;
6288;SDS011;3177;49.880;8.836;2023-08-06T06:22:50;1.10;;;1.10;;
6288;SDS011;3177;49.880;8.836;2023-08-06T06:25:26;2.20;;;1.10;;
6288;SDS011;3177;49.880;8.836;2023-08-06T06:27:54;1.10;;;1.10;;
6288;SDS011;3177;49.880;8.836;2023-08-06T06:30:22;1.33;;;1.20;;
6288;SDS011;3177;49.880;8.836;2023-08-06T06:32:49;1.40;;;1.30;;
6288;SDS011;3177;49.880;8.836;2023-08-06T06:35:16;1.40;;;1.30;;
6288;SDS011;3177;49.880;8.836;2023-08-06T06:37:43;1.40;;;1.30;;
6288;SDS011;3177;49.880;8.836;2023-08-06T06:40:10;1.37;;;1.27;;
6288;SDS011;3177;49.880;8.836;2023-08-06T06:42:37;2.50;;;1.37;;
6288;SDS011;3177;49.880;8.836;2023-08-06T06:45:07;1.63;;;1.53;;
6288;SDS011;3177;49.880;8.836;2023-08-06T06:47:34;1.40;;;1.30;;
6288;SDS011;3177;49.880;8.836;2023-08-06T06:50:01;1.00;;;1.00;;
6288;SDS011;3177;49.880;8.836;2023-08-06T06:52:29;1.30;;;1.30;;
6288;SDS011;3177;49.880;8.836;2023-08-06T06:54:56;1.30;;;1.20;;
6288;SDS011;3177;49.880;8.836;2023-08-06T06:57:23;1.40;;;1.40;;
6288;SDS011;3177;49.880;8.836;2023-08-06T06:59:51;3.40;;;1.30;;
6288;SDS011;3177;49.880;8.836;2023-08-06T07:02:19;1.33;;;1.20;;
6288;SDS011;3177;49.880;8.836;2023-08-06T07:04:46;2.57;;;1.13;;
6288;SDS011;3177;49.880;8.836;2023-08-06T07:07:13;1.37;;;1.27;;
6288;SDS011;3177;49.880;8.836;2023-08-06T07:09:40;1.47;;;1.30;;
6288;SDS011;3177;49.880;8.836;2023-08-06T07:12:07;1.70;;;1.27;;
6288;SDS011;3177;49.880;8.836;2023-08-06T07:14:35;1.63;;;1.50;;
6288;SDS011;3177;49.880;8.836;2023-08-06T07:17:02;1.33;;;1.27;;
6288;SDS011;3177;49.880;8.836;2023-08-06T07:19:31;1.47;;;1.20;;
6288;SDS011;3177;49.880;8.836;2023-08-06T07:21:58;1.50;;;1.40;;
6288;SDS011;3177;49.880;8.836;2023-08-06T07:24:26;1.47;;;1.37;;
6288;SDS011;3177;49.880;8.836;2023-08-06T07:26:53;2.93;;;1.33;;
6288;SDS011;3177;49.880;8.836;2023-08-06T07:29:20;1.30;;;1.20;;
6288;SDS011;3177;49.880;8.836;2023-08-06T07:31:47;2.87;;;1.10;;
6288;SDS011;3177;49.880;8.836;2023-08-06T07:34:15;1.00;;;0.90;;
6288;SDS011;3177;49.880;8.836;2023-08-06T07:36:44;0.93;;;0.93;;
6288;SDS011;3177;49.880;8.836;2023-08-06T07:39:11;2.37;;;1.37;;
6288;SDS011;3177;49.880;8.836;2023-08-06T07:41:38;1.13;;;1.10;;
6288;SDS011;3177;49.880;8.836;2023-08-06T07:44:06;1.60;;;1.30;;
6288;SDS011;3177;49.880;8.836;2023-08-06T07:46:33;1.30;;;1.20;;
6288;SDS011;3177;49.880;8.836;2023-08-06T07:49:00;2.83;;;1.40;;
6288;SDS011;3177;49.880;8.836;2023-08-06T07:51:28;1.10;;;1.10;;
6288;SDS011;3177;49.880;8.836;2023-08-06T07:53:56;1.37;;;1.17;;
6288;SDS011;3177;49.880;8.836;2023-08-06T07:56:23;1.00;;;1.00;;
6288;SDS011;3177;49.880;8.836;2023-08-06T07:58:50;1.33;;;1.20;;
6288;SDS011;3177;49.880;8.836;2023-08-06T08:01:17;1.73;;;1.00;;
6288;SDS011;3177;49.880;8.836;2023-08-06T08:03:45;1.57;;;1.20;;
6288;SDS011;3177;49.880;8.836;2023-08-06T08:06:12;1.60;;;1.00;;
6288;SDS011;3177;49.880;8.836;2023-08-06T08:08:39;1.07;;;1.03;;
6288;SDS011;3177;49.880;8.836;2023-08-06T08:11:07;1.07;;;1.03;;
6288;SDS011;3177;49.880;8.836;2023-08-06T08:13:34;1.20;;;1.10;;
6288;SDS011;3177;49.880;8.836;2023-08-06T08:16:01;1.63;;;1.20;;
6288;SDS011;3177;49.880;8.836;2023-08-06T08:18:28;1.20;;;1.17;;
6288;SDS011;3177;49.880;8.836;2023-08-06T08:20:56;2.90;;;1.17;;
6288;SDS011;3177;49.880;8.836;2023-08-06T08:23:23;1.17;;;1.07;;
6288;SDS011;3177;49.880;8.836;2023-08-06T08:25:50;1.37;;;1.00;;
6288;SDS011;3177;49.880;8.836;2023-08-06T08:28:19;1.00;;;1.00;;
6288;SDS011;3177;49.880;8.836;2023-08-06T08:30:46;1.20;;;1.20;;
6288;SDS011;3177;49.880;8.836;2023-08-06T08:33:13;1.37;;;1.27;;
6288;SDS011;3177;49.880;8.836;2023-08-06T08:35:40;1.30;;;1.10;;
6288;SDS011;3177;49.880;8.836;2023-08-06T08:38:07;2.13;;;1.40;;
6288;SDS011;3177;49.880;8.836;2023-08-06T08:40:34;1.37;;;1.10;;
6288;SDS011;3177;49.880;8.836;2023-08-06T08:43:04;1.40;;;1.30;;
6288;SDS011;3177;49.880;8.836;2023-08-06T08:45:33;1.10;;;1.10;;
6288;SDS011;3177;49.880;8.836;2023-08-06T08:48:01;1.67;;;1.27;;
6288;SDS011;3177;49.880;8.836;2023-08-06T08:50:28;1.23;;;0.90;;
6288;SDS011;3177;49.880;8.836;2023-08-06T08:52:55;0.90;;;0.90;;
6288;SDS011;3177;49.880;8.836;2023-08-06T08:55:24;3.47;;;1.40;;
6288;SDS011;3177;49.880;8.836;2023-08-06T08:57:51;1.00;;;1.00;;
6288;SDS011;3177;49.880;8.836;2023-08-06T09:00:18;1.13;;;1.03;;
6288;SDS011;3177;49.880;8.836;2023-08-06T09:02:47;1.00;;;1.00;;
6288;SDS011;3177;49.880;8.836;2023-08-06T09:05:14;1.00;;;0.90;;
6288;SDS011;3177;49.880;8.836;2023-08-06T09:07:42;2.05;;;0.98;;
6288;SDS011;3177;49.880;8.836;2023-08-06T09:10:10;1.70;;;1.00;;
6288;SDS011;3177;49.880;8.836;2023-08-06T09:12:38;0.70;;;0.70;;
6288;SDS011;3177;49.880;8.836;2023-08-06T09:15:06;0.87;;;0.87;;
6288;SDS011;3177;49.880;8.836;2023-08-06T09:17:33;1.17;;;1.17;;
6288;SDS011;3177;49.880;8.836;2023-08-06T09:20:09;1.25;;;1.25;;
6288;SDS011;3177;49.880;8.836;2023-08-06T09:22:36;1.13;;;1.13;;
6288;SDS011;3177;49.880;8.836;2023-08-06T09:25:04;1.20;;;1.20;;
6288;SDS011;3177;49.880;8.836;2023-08-06T09:27:34;1.80;;;1.00;;
6288;SDS011;3177;49.880;8.836;2023-08-06T09:30:02;1.67;;;1.10;;
6288;SDS011;3177;49.880;8.836;2023-08-06T09:32:33;0.70;;;0.70;;
6288;SDS011;3177;49.880;8.836;2023-08-06T09:35:14;0.80;;;0.80;;
6288;SDS011;3177;49.880;8.836;2023-08-06T09:37:42;1.48;;;0.90;;
6288;SDS011;3177;49.880;8.836;2023-08-06T09:40:22;1.67;;;0.70;;
6288;SDS011;3177;49.880;8.836;2023-08-06T09:42:50;0.50;;;0.50;;
6288;SDS011;3177;49.880;8.836;2023-08-06T09:45:17;0.60;;;0.60;;
6288;SDS011;3177;49.880;8.836;2023-08-06T09:47:46;0.63;;;0.63;;
6288;SDS011;3177;49.880;8.836;2023-08-06T09:50:18;0.50;;;0.50;;
6288;SDS011;3177;49.880;8.836;2023-08-06T09:52:46;1.13;;;0.70;;
6288;SDS011;3177;49.880;8.836;2023-08-06T09:55:14;0.80;;;0.80;;
6288;SDS011;3177;49.880;8.836;2023-08-06T09:57:41;0.45;;;0.45;;
6288;SDS011;3177;49.880;8.836;2023-08-06T10:00:09;0.70;;;0.70;;
6288;SDS011;3177;49.880;8.836;2023-08-06T10:02:37;0.60;;;0.60;;
6288;SDS011;3177;49.880;8.836;2023-08-06T10:05:04;0.60;;;0.60;;
6288;SDS011;3177;49.880;8.836;2023-08-06T10:07:33;0.60;;;0.60;;
6288;SDS011;3177;49.880;8.836;2023-08-06T10:10:00;0.60;;;0.60;;
6288;SDS011;3177;49.880;8.836;2023-08-06T10:12:28;0.50;;;0.50;;
6288;SDS011;3177;49.880;8.836;2023-08-06T10:14:55;0.57;;;0.57;;
6288;SDS011;3177;49.880;8.836;2023-08-06T10:17:24;0.45;;;0.40;;
6288;SDS011;3177;49.880;8.836;2023-08-06T10:19:52;0.60;;;0.60;;
6288;SDS011;3177;49.880;8.836;2023-08-06T10:22:19;0.63;;;0.63;;
6288;SDS011;3177;49.880;8.836;2023-08-06T10:24:50;0.60;;;0.60;;
6288;SDS011;3177;49.880;8.836;2023-08-06T10:27:21;0.45;;;0.45;;
6288;SDS011;3177;49.880;8.836;2023-08-06T10:29:48;1.73;;;0.63;;
6288;SDS011;3177;49.880;8.836;2023-08-06T10:32:16;0.30;;;0.30;;
6288;SDS011;3177;49.880;8.836;2023-08-06T10:34:53;0.30;;;0.30;;
6288;SDS011;3177;49.880;8.836;2023-08-06T10:37:21;0.80;;;0.40;;
6288;SDS011;3177;49.880;8.836;2023-08-06T10:39:50;0.35;;;0.35;;
6288;SDS011;3177;49.880;8.836;2023-08-06T10:42:21;0.43;;;0.43;;
6288;SDS011;3177;49.880;8.836;2023-08-06T10:47:37;0.20;;;0.20;;
6288;SDS011;3177;49.880;8.836;2023-08-06T10:50:05;0.65;;;0.40;;
6288;SDS011;3177;49.880;8.836;2023-08-06T10:52:33;0.30;;;0.30;;
6288;SDS011;3177;49.880;8.836;2023-08-06T10:55:02;0.25;;;0.25;;
6288;SDS011;3177;49.880;8.836;2023-08-06T10:57:29;0.32;;;0.30;;
6288;SDS011;3177;49.880;8.836;2023-08-06T10:59:56;0.40;;;0.30;;
6288;SDS011;3177;49.880;8.836;2023-08-06T11:02:23;0.40;;;0.40;;
6288;SDS011;3177;49.880;8.836;2023-08-06T11:04:50;0.50;;;0.50;;
6288;SDS011;3177;49.880;8.836;2023-08-06T11:07:17;0.40;;;0.40;;
6288;SDS011;3177;49.880;8.836;2023-08-06T11:09:49;0.30;;;0.22;;
6288;SDS011;3177;49.880;8.836;2023-08-06T11:12:19;0.30;;;0.30;;
6288;SDS011;3177;49.880;8.836;2023-08-06T11:14:49;0.20;;;0.20;;
6288;SDS011;3177;49.880;8.836;2023-08-06T11:17:16;1.35;;;0.55;;
6288;SDS011;3177;49.880;8.836;2023-08-06T11:19:43;0.60;;;0.32;;
6288;SDS011;3177;49.880;8.836;2023-08-06T11:22:10;0.20;;;0.20;;
6288;SDS011;3177;49.880;8.836;2023-08-06T11:24:37;0.30;;;0.30;;
6288;SDS011;3177;49.880;8.836;2023-08-06T11:27:10;0.30;;;0.30;;
6288;SDS011;3177;49.880;8.836;2023-08-06T11:29:39;0.45;;;0.30;;
6288;SDS011;3177;49.880;8.836;2023-08-06T11:32:06;0.35;;;0.35;;
6288;SDS011;3177;49.880;8.836;2023-08-06T11:34:33;1.42;;;0.22;;
6288;SDS011;3177;49.880;8.836;2023-08-06T11:37:00;0.73;;;0.70;;
6288;SDS011;3177;49.880;8.836;2023-08-06T11:39:30;0.20;;;0.20;;
6288;SDS011;3177;49.880;8.836;2023-08-06T11:41:57;0.20;;;0.20;;
6288;SDS011;3177;49.880;8.836;2023-08-06T11:44:29;0.57;;;0.35;;
6288;SDS011;3177;49.880;8.836;2023-08-06T11:46:59;1.25;;;0.35;;
6288;SDS011;3177;49.880;8.836;2023-08-06T11:49:37;0.20;;;0.20;;
6288;SDS011;3177;49.880;8.836;2023-08-06T11:52:09;0.10;;;0.10;;
6288;SDS011;3177;49.880;8.836;2023-08-06T11:54:36;0.25;;;0.25;;
6288;SDS011;3177;49.880;8.836;2023-08-06T11:57:03;0.80;;;0.60;;
6288;SDS011;3177;49.880;8.836;2023-08-06T11:59:31;1.00;;;0.43;;
6288;SDS011;3177;49.880;8.836;2023-08-06T12:02:01;0.30;;;0.30;;
6288;SDS011;3177;49.880;8.836;2023-08-06T12:04:30;0.40;;;0.25;;
6288;SDS011;3177;49.880;8.836;2023-08-06T12:07:04;0.20;;;0.20;;
6288;SDS011;3177;49.880;8.836;2023-08-06T12:09:33;0.15;;;0.15;;
6288;SDS011;3177;49.880;8.836;2023-08-06T12:12:01;0.60;;;0.30;;
6288;SDS011;3177;49.880;8.836;2023-08-06T12:14:28;0.85;;;0.30;;
6288;SDS011;3177;49.880;8.836;2023-08-06T12:16:55;0.55;;;0.32;;
6288;SDS011;3177;49.880;8.836;2023-08-06T12:19:23;0.20;;;0.20;;
6288;SDS011;3177;49.880;8.836;2023-08-06T12:21:51;0.20;;;0.20;;
6288;SDS011;3177;49.880;8.836;2023-08-06T12:24:18;0.40;;;0.40;;
6288;SDS011;3177;49.880;8.836;2023-08-06T12:26:45;0.98;;;0.52;;
6288;SDS011;3177;49.880;8.836;2023-08-06T12:29:12;0.63;;;0.40;;
6288;SDS011;3177;49.880;8.836;2023-08-06T12:31:39;0.40;;;0.40;;
6288;SDS011;3177;49.880;8.836;2023-08-06T12:34:06;0.40;;;0.40;;
6288;SDS011;3177;49.880;8.836;2023-08-06T12:36:35;0.60;;;0.60;;
6288;SDS011;3177;49.880;8.836;2023-08-06T12:39:02;0.70;;;0.63;;
6288;SDS011;3177;49.880;8.836;2023-08-06T12:41:29;1.20;;;0.50;;
6288;SDS011;3177;49.880;8.836;2023-08-06T12:43:56;0.40;;;0.40;;
6288;SDS011;3177;49.880;8.836;2023-08-06T12:46:23;0.50;;;0.50;;
6288;SDS011;3177;49.880;8.836;2023-08-06T12:48:50;0.60;;;0.60;;
6288;SDS011;3177;49.880;8.836;2023-08-06T12:51:17;0.80;;;0.80;;
6288;SDS011;3177;49.880;8.836;2023-08-06T12:53:46;0.43;;;0.43;;
6288;SDS011;3177;49.880;8.836;2023-08-06T12:56:13;1.15;;;0.80;;
6288;SDS011;3177;49.880;8.836;2023-08-06T12:58:40;1.42;;;1.33;;
6288;SDS011;3177;49.880;8.836;2023-08-06T13:01:08;1.20;;;1.10;;
6288;SDS011;3177;49.880;8.836;2023-08-06T13:03:35;0.50;;;0.50;;
6288;SDS011;3177;49.880;8.836;2023-08-06T13:06:02;0.73;;;0.73;;
6288;SDS011;3177;49.880;8.836;2023-08-06T13:08:29;0.90;;;0.90;;
6288;SDS011;3177;49.880;8.836;2023-08-06T13:10:58;0.95;;;0.85;;
6288;SDS011;3177;49.880;8.836;2023-08-06T13:13:25;0.90;;;0.90;;
6288;SDS011;3177;49.880;8.836;2023-08-06T13:15:52;0.82;;;0.82;;
6288;SDS011;3177;49.880;8.836;2023-08-06T13:18:19;2.33;;;0.82;;
6288;SDS011;3177;49.880;8.836;2023-08-06T13:20:46;1.25;;;0.80;;
6288;SDS011;3177;49.880;8.836;2023-08-06T13:23:17;1.08;;;1.00;;
6288;SDS011;3177;49.880;8.836;2023-08-06T13:25:45;0.80;;;0.80;;
6288;SDS011;3177;49.880;8.836;2023-08-06T13:28:14;0.68;;;0.68;;
6288;SDS011;3177;49.880;8.836;2023-08-06T13:30:41;1.10;;;0.90;;
6288;SDS011;3177;49.880;8.836;2023-08-06T13:33:08;0.95;;;0.80;;
6288;SDS011;3177;49.880;8.836;2023-08-06T13:35:36;0.82;;;0.80;;
6288;SDS011;3177;49.880;8.836;2023-08-06T13:38:03;3.58;;;2.10;;
6288;SDS011;3177;49.880;8.836;2023-08-06T13:40:32;1.33;;;1.23;;
6288;SDS011;3177;49.880;8.836;2023-08-06T13:42:59;0.90;;;0.80;;
6288;SDS011;3177;49.880;8.836;2023-08-06T13:45:28;1.98;;;1.20;;
6288;SDS011;3177;49.880;8.836;2023-08-06T13:47:56;1.77;;;0.98;;
6288;SDS011;3177;49.880;8.836;2023-08-06T13:50:23;1.00;;;0.98;;
6288;SDS011;3177;49.880;8.836;2023-08-06T13:52:51;1.38;;;0.90;;
6288;SDS011;3177;49.880;8.836;2023-08-06T13:55:20;1.35;;;0.93;;
6288;SDS011;3177;49.880;8.836;2023-08-06T13:57:47;2.25;;;1.17;;
6288;SDS011;3177;49.880;8.836;2023-08-06T14:00:15;2.00;;;0.80;;
6288;SDS011;3177;49.880;8.836;2023-08-06T14:02:43;0.93;;;0.82;;
6288;SDS011;3177;49.880;8.836;2023-08-06T14:05:10;0.70;;;0.70;;
6288;SDS011;3177;49.880;8.836;2023-08-06T14:07:37;0.93;;;0.70;;
6288;SDS011;3177;49.880;8.836;2023-08-06T14:10:05;0.77;;;0.60;;
6288;SDS011;3177;49.880;8.836;2023-08-06T14:12:34;0.65;;;0.65;;
6288;SDS011;3177;49.880;8.836;2023-08-06T14:15:01;0.70;;;0.70;;
6288;SDS011;3177;49.880;8.836;2023-08-06T14:17:29;4.25;;;0.82;;
6288;SDS011;3177;49.880;8.836;2023-08-06T14:19:57;0.47;;;0.47;;
6288;SDS011;3177;49.880;8.836;2023-08-06T14:22:25;0.63;;;0.63;;
6288;SDS011;3177;49.880;8.836;2023-08-06T14:24:52;0.95;;;0.70;;
6288;SDS011;3177;49.880;8.836;2023-08-06T14:27:20;0.60;;;0.60;;
6288;SDS011;3177;49.880;8.836;2023-08-06T14:29:47;1.10;;;0.60;;
6288;SDS011;3177;49.880;8.836;2023-08-06T14:32:14;1.30;;;0.70;;
6288;SDS011;3177;49.880;8.836;2023-08-06T14:34:43;0.60;;;0.50;;
6288;SDS011;3177;49.880;8.836;2023-08-06T14:37:11;0.63;;;0.45;;
6288;SDS011;3177;49.880;8.836;2023-08-06T14:39:38;0.73;;;0.60;;
6288;SDS011;3177;49.880;8.836;2023-08-06T14:42:05;0.47;;;0.47;;
6288;SDS011;3177;49.880;8.836;2023-08-06T14:44:32;1.95;;;0.80;;
6288;SDS011;3177;49.880;8.836;2023-08-06T14:46:59;0.65;;;0.65;;
6288;SDS011;3177;49.880;8.836;2023-08-06T14:49:27;0.30;;;0.30;;
6288;SDS011;3177;49.880;8.836;2023-08-06T14:51:54;0.50;;;0.50;;
6288;SDS011;3177;49.880;8.836;2023-08-06T14:54:25;2.20;;;0.60;;
6288;SDS011;3177;49.880;8.836;2023-08-06T14:56:52;0.82;;;0.82;;
6288;SDS011;3177;49.880;8.836;2023-08-06T14:59:19;1.27;;;0.73;;
6288;SDS011;3177;49.880;8.836;2023-08-06T15:01:46;0.98;;;0.80;;
6288;SDS011;3177;49.880;8.836;2023-08-06T15:04:13;1.52;;;0.88;;
6288;SDS011;3177;49.880;8.836;2023-08-06T15:06:41;0.93;;;0.70;;
6288;SDS011;3177;49.880;8.836;2023-08-06T15:09:08;0.80;;;0.80;;
6288;SDS011;3177;49.880;8.836;2023-08-06T15:11:36;0.85;;;0.75;;
6288;SDS011;3177;49.880;8.836;2023-08-06T15:14:03;0.77;;;0.73;;
6288;SDS011;3177;49.880;8.836;2023-08-06T15:16:32;1.05;;;0.60;;
6288;SDS011;3177;49.880;8.836;2023-08-06T15:18:59;0.50;;;0.50;;
6288;SDS011;3177;49.880;8.836;2023-08-06T15:21:26;0.60;;;0.60;;
6288;SDS011;3177;49.880;8.836;2023-08-06T15:23:53;0.75;;;0.68;;
6288;SDS011;3177;49.880;8.836;2023-08-06T15:26:20;0.68;;;0.68;;